MFD weather

Mansfield Lahm Regional Airport
Mansfield, Ohio, United States

Public forecast

Using degrees Fahrenheit for public forecast. Weather courtesy of forecast.io.

METAR (pilot weather report)

Retrieved 2019/03/26 16:52 UTC (1 hour ago):

KMFD 261652Z 34008KT 250V010 10SM CLR 03/M08 A3038 RMK AO2 SLP303 T00331083

TAF (pilot weather forecast)

Retrieved 2019/03/26 12:22 UTC (6 hours ago):

TAF KMFD 261120Z 2612/2712 02008KT P6SM SKC FM270300 VRB03KT P6SM SKC